Time;durP1;ratioP1;P1;durP2;ratioP2;P2;SDS_P1;SDS_P2;PMS_P1;PMS_P2;Temp;Humidity;BMP_temperature;BMP_pressure;BME280_temperature;BME280_humidity;BME280_pressure;Samples;Min_cycle;Max_cycle;Signal;HPM_P1;HPM_P2
2023/10/28 00:02:37;;;;;;;;;;;;;;;15.09;58.35;99109.34;5413574;32;34283;-73
2023/10/28 00:06:01;;;;;;;;;;;;;;;15.31;57.76;99103.22;5409498;32;34799;-72
2023/10/28 00:09:20;;;;;;;;;;;;;;;15.03;59.06;99101.03;5407867;32;34410;-71
2023/10/28 00:12:30;;;;;;;;;;;;;;;15.02;58.30;99102.84;5418620;32;35093;-72
2023/10/28 00:15:50;;;;;;;;;;;;;;;14.85;58.61;99103.31;5412996;32;35723;-70
2023/10/28 00:19:07;;;;;;;;;;;;;;;14.36;60.77;99105.22;5418477;32;34424;-73
2023/10/28 00:22:27;;;;;;;;;;;;;;;14.95;58.64;99104.28;5411214;32;34204;-73
2023/10/28 00:26:00;;;;;;;;;;;;;;;15.22;57.91;99111.88;5426742;32;34894;-74
2023/10/28 00:29:17;;;;;;;;;;;;;;;14.87;58.75;99115.44;5408324;32;34665;-73
2023/10/28 00:33:03;;;;;;;;;;;;;;;15.27;57.39;99111.53;5422874;32;35184;-72
2023/10/28 00:36:18;;;;;;;;;;;;;;;14.97;57.90;99110.31;5407890;32;34305;-71
2023/10/28 00:39:50;;;;;;;;;;;;;;;15.08;57.71;99118.25;5415950;32;34979;-72
2023/10/28 00:43:03;;;;;;;;;;;;;;;15.34;56.90;99102.97;5408516;32;35196;-74
2023/10/28 00:46:40;;;;;;;;;;;;;;;15.33;56.80;99111.06;5402211;32;35167;-71
2023/10/28 00:49:54;;;;;;;;;;;;;;;14.81;58.50;99109.78;5399068;32;34888;-71
2023/10/28 00:53:25;;;;;;;;;;;;;;;15.47;56.35;99110.78;5379397;32;35434;-73
2023/10/28 00:56:48;;;;;;;;;;;;;;;15.66;55.44;99120.78;5377693;32;34623;-74
2023/10/28 00:59:57;;;;;;;;;;;;;;;15.46;56.23;99130.28;5380138;32;33937;-71
2023/10/28 01:02:59;;;;;;;;;;;;;;;14.84;58.04;99136.00;5380100;32;34245;-71
2023/10/28 01:06:01;;;;;;;;;;;;;;;15.36;56.53;99145.22;5378111;32;34649;-72
2023/10/28 01:09:04;;;;;;;;;;;;;;;15.27;56.99;99149.44;5384490;32;35741;-72
2023/10/28 01:12:08;;;;;;;;;;;;;;;15.46;56.36;99138.25;5380374;32;33367;-72
2023/10/28 01:15:11;;;;;;;;;;;;;;;15.47;56.39;99144.38;5386194;32;34424;-72
2023/10/28 01:18:13;;;;;;;;;;;;;;;15.21;57.51;99141.13;5381030;32;35171;-72
2023/10/28 01:21:15;;;;;;;;;;;;;;;15.10;57.75;99137.50;5379064;32;35448;-73
2023/10/28 01:24:18;;;;;;;;;;;;;;;15.45;56.55;99136.53;5384841;32;34711;-71
2023/10/28 01:27:20;;;;;;;;;;;;;;;15.12;57.87;99147.94;5377220;32;34280;-73
2023/10/28 01:30:22;;;;;;;;;;;;;;;14.90;58.81;99159.34;5375067;32;34704;-74
2023/10/28 01:33:24;;;;;;;;;;;;;;;14.90;58.44;99162.84;5381452;32;34691;-74
2023/10/28 01:36:26;;;;;;;;;;;;;;;14.76;59.16;99175.44;5385296;32;34865;-73
2023/10/28 01:39:28;;;;;;;;;;;;;;;14.84;59.13;99167.75;5385518;32;33957;-72
2023/10/28 01:42:30;;;;;;;;;;;;;;;15.53;56.32;99163.28;5382032;32;34101;-74
2023/10/28 01:45:33;;;;;;;;;;;;;;;15.21;57.28;99164.94;5398233;32;35271;-72
2023/10/28 01:48:35;;;;;;;;;;;;;;;15.35;57.32;99175.28;5381363;32;35062;-71
2023/10/28 01:51:37;;;;;;;;;;;;;;;15.32;57.69;99167.56;5389171;32;34264;-73
2023/10/28 01:54:39;;;;;;;;;;;;;;;15.05;58.85;99173.19;5381817;32;34549;-74
2023/10/28 01:57:41;;;;;;;;;;;;;;;14.56;60.58;99177.78;5420880;32;35556;-71
2023/10/28 02:00:43;;;;;;;;;;;;;;;14.75;59.89;99176.38;5406209;32;34483;-73
2023/10/28 02:03:46;;;;;;;;;;;;;;;14.72;60.14;99176.63;5415086;32;34661;-71
2023/10/28 02:06:50;;;;;;;;;;;;;;;14.29;61.74;99177.97;5438525;32;35330;-73
2023/10/28 02:09:52;;;;;;;;;;;;;;;13.90;63.11;99181.69;5459618;32;35298;-71
2023/10/28 02:12:54;;;;;;;;;;;;;;;14.29;62.15;99177.13;5450937;32;34250;-71
2023/10/28 02:15:57;;;;;;;;;;;;;;;14.66;60.69;99180.56;5460469;32;34580;-73
2023/10/28 02:18:59;;;;;;;;;;;;;;;14.65;61.36;99181.53;5464912;32;35010;-73
2023/10/28 02:22:01;;;;;;;;;;;;;;;14.47;61.77;99181.09;5462490;32;35084;-71
2023/10/28 02:25:14;;;;;;;;;;;;;;;14.13;61.77;99185.34;5457059;32;34922;-71
2023/10/28 02:28:17;;;;;;;;;;;;;;;14.51;61.19;99197.56;5464707;32;35169;-73
2023/10/28 02:31:19;;;;;;;;;;;;;;;15.26;58.67;99199.81;5471747;32;35140;-73
2023/10/28 02:34:21;;;;;;;;;;;;;;;14.13;62.61;99209.13;5471069;32;34633;-71
2023/10/28 02:37:23;;;;;;;;;;;;;;;13.45;64.66;99212.19;5465419;32;34700;-73
2023/10/28 02:40:25;;;;;;;;;;;;;;;13.36;65.48;99202.28;5468435;32;35131;-71
2023/10/28 02:43:27;;;;;;;;;;;;;;;13.86;64.14;99196.09;5469172;32;34886;-71
2023/10/28 02:46:29;;;;;;;;;;;;;;;14.14;63.22;99194.09;5465884;32;34744;-72
2023/10/28 02:49:32;;;;;;;;;;;;;;;14.12;62.82;99196.03;5469717;32;35038;-71
2023/10/28 02:52:34;;;;;;;;;;;;;;;14.03;62.88;99200.16;5465220;32;35731;-72
2023/10/28 02:55:36;;;;;;;;;;;;;;;13.99;63.12;99196.91;5456036;32;34513;-71
2023/10/28 02:58:39;;;;;;;;;;;;;;;13.79;63.86;99195.69;5465090;32;34536;-72
2023/10/28 03:01:41;;;;;;;;;;;;;;;13.57;64.92;99190.22;5464662;32;35371;-73
2023/10/28 03:04:44;;;;;;;;;;;;;;;13.89;64.42;99185.31;5466136;32;35153;-72
2023/10/28 03:07:46;;;;;;;;;;;;;;;13.81;64.93;99185.84;5460238;32;34349;-71
2023/10/28 03:10:48;;;;;;;;;;;;;;;13.87;63.64;99186.37;5469848;32;34640;-73
2023/10/28 03:13:50;;;;;;;;;;;;;;;14.20;62.84;99180.44;5464380;32;34600;-73
2023/10/28 03:16:53;;;;;;;;;;;;;;;14.29;63.08;99182.41;5480619;32;35048;-72
2023/10/28 03:19:55;;;;;;;;;;;;;;;14.28;62.92;99186.00;5464644;32;34353;-72
2023/10/28 03:22:57;;;;;;;;;;;;;;;14.59;62.45;99196.03;5465693;32;34879;-72
2023/10/28 03:25:59;;;;;;;;;;;;;;;14.35;63.51;99196.00;5468825;32;34734;-73
2023/10/28 03:29:02;;;;;;;;;;;;;;;13.92;65.59;99198.31;5464182;32;35238;-73
2023/10/28 03:32:04;;;;;;;;;;;;;;;14.20;64.80;99194.50;5464923;32;35000;-71
2023/10/28 03:35:06;;;;;;;;;;;;;;;13.67;66.48;99199.19;5448959;32;34403;-72
2023/10/28 03:38:09;;;;;;;;;;;;;;;13.99;66.04;99207.47;5454019;32;35079;-72
2023/10/28 03:41:11;;;;;;;;;;;;;;;13.72;66.62;99198.88;5464631;32;34966;-71
2023/10/28 03:44:13;;;;;;;;;;;;;;;13.80;65.86;99194.72;5461531;32;35212;-73
2023/10/28 03:47:16;;;;;;;;;;;;;;;14.18;64.68;99199.06;5466013;32;35750;-72
2023/10/28 03:50:18;;;;;;;;;;;;;;;14.05;65.29;99209.69;5461283;32;35064;-73
2023/10/28 03:53:20;;;;;;;;;;;;;;;14.30;64.42;99213.19;5451039;32;34807;-73
2023/10/28 03:56:22;;;;;;;;;;;;;;;14.17;65.15;99209.72;5460690;32;34311;-71
2023/10/28 03:59:25;;;;;;;;;;;;;;;14.01;64.91;99210.84;5465807;32;34872;-71
2023/10/28 04:02:28;;;;;;;;;;;;;;;14.82;62.16;99217.28;5458096;32;34827;-72
2023/10/28 04:05:30;;;;;;;;;;;;;;;13.96;64.93;99220.88;5457201;32;34958;-71
2023/10/28 04:08:32;;;;;;;;;;;;;;;13.51;66.10;99222.34;5464259;32;35235;-72
2023/10/28 04:11:34;;;;;;;;;;;;;;;13.55;66.37;99229.09;5461176;32;34445;-72
2023/10/28 04:14:36;;;;;;;;;;;;;;;14.48;63.60;99227.72;5465487;32;34591;-71
2023/10/28 04:17:39;;;;;;;;;;;;;;;14.18;63.69;99230.78;5461217;32;34714;-74
2023/10/28 04:20:41;;;;;;;;;;;;;;;13.01;68.20;99238.03;5465187;32;35004;-72
2023/10/28 04:23:43;;;;;;;;;;;;;;;12.97;69.19;99238.31;5461277;32;35139;-72
2023/10/28 04:26:45;;;;;;;;;;;;;;;13.27;67.68;99235.44;5461643;32;35125;-71
2023/10/28 04:29:47;;;;;;;;;;;;;;;13.80;65.67;99230.87;5462976;32;34350;-72
2023/10/28 04:32:51;;;;;;;;;;;;;;;13.39;66.46;99239.00;5461684;32;35069;-72
2023/10/28 04:35:54;;;;;;;;;;;;;;;14.01;64.64;99233.78;5465749;32;34975;-72
2023/10/28 04:38:56;;;;;;;;;;;;;;;14.14;63.60;99239.03;5445875;32;35265;-71
2023/10/28 04:41:58;;;;;;;;;;;;;;;13.96;64.21;99239.37;5476528;32;34732;-71
2023/10/28 04:45:00;;;;;;;;;;;;;;;13.06;66.62;99245.59;5446894;32;34520;-73
2023/10/28 04:48:02;;;;;;;;;;;;;;;12.93;68.05;99248.22;5471925;32;34735;-72
2023/10/28 04:51:05;;;;;;;;;;;;;;;13.75;65.45;99249.66;5465881;32;35749;-71
2023/10/28 04:54:07;;;;;;;;;;;;;;;14.19;63.86;99247.47;5460609;32;35809;-72
2023/10/28 04:57:09;;;;;;;;;;;;;;;14.30;63.44;99247.53;5466034;32;34923;-74
2023/10/28 05:00:13;;;;;;;;;;;;;;;14.03;64.51;99245.06;5459996;32;34258;-73
2023/10/28 05:03:15;;;;;;;;;;;;;;;14.43;63.53;99252.78;5461981;32;35174;-74
2023/10/28 05:06:21;;;;;;;;;;;;;;;14.13;64.73;99250.56;5459786;32;34230;-73
2023/10/28 05:09:23;;;;;;;;;;;;;;;13.92;65.69;99253.78;5461212;32;34543;-72
2023/10/28 05:12:26;;;;;;;;;;;;;;;13.72;67.04;99260.47;5465770;32;35118;-71
2023/10/28 05:15:31;;;;;;;;;;;;;;;13.60;68.21;99265.75;5460441;32;34975;-74
2023/10/28 05:18:33;;;;;;;;;;;;;;;13.30;69.33;99276.59;5476342;32;35637;-73
2023/10/28 05:21:37;;;;;;;;;;;;;;;13.14;70.56;99271.50;5460206;32;35037;-73
2023/10/28 05:24:41;;;;;;;;;;;;;;;13.30;69.86;99274.81;5448068;32;34769;-72
2023/10/28 05:27:43;;;;;;;;;;;;;;;12.93;71.10;99265.84;5459249;32;35430;-72
2023/10/28 05:30:48;;;;;;;;;;;;;;;13.42;69.61;99281.88;5459185;32;34838;-74
2023/10/28 05:33:50;;;;;;;;;;;;;;;13.49;68.97;99292.87;5464911;32;35448;-71
2023/10/28 05:36:52;;;;;;;;;;;;;;;13.36;69.97;99305.22;5444526;32;36615;-73
2023/10/28 05:39:59;;;;;;;;;;;;;;;13.15;71.15;99313.59;5450287;32;35171;-71
2023/10/28 05:43:19;;;;;;;;;;;;;;;12.66;74.29;99324.72;5443454;32;35365;-73
2023/10/28 05:46:22;;;;;;;;;;;;;;;13.07;73.31;99321.16;5459604;32;34522;-72
2023/10/28 05:49:25;;;;;;;;;;;;;;;13.39;70.94;99324.31;5464641;32;35575;-71
2023/10/28 05:52:30;;;;;;;;;;;;;;;12.82;73.34;99327.22;5457606;32;34408;-71
2023/10/28 05:55:32;;;;;;;;;;;;;;;12.97;73.43;99331.47;5462136;32;34926;-74
2023/10/28 05:58:34;;;;;;;;;;;;;;;11.75;81.12;99368.13;5458826;32;35034;-72
2023/10/28 06:01:36;;;;;;;;;;;;;;;12.53;77.83;99360.69;5460832;32;35526;-72
2023/10/28 06:04:39;;;;;;;;;;;;;;;12.47;79.00;99361.09;5458810;32;34895;-71
2023/10/28 06:07:47;;;;;;;;;;;;;;;12.47;79.43;99374.25;5458165;32;35379;-72
2023/10/28 06:10:49;;;;;;;;;;;;;;;12.48;80.25;99370.69;5449545;32;34331;-71
2023/10/28 06:13:52;;;;;;;;;;;;;;;12.62;79.88;99370.69;5457036;32;34943;-71
2023/10/28 06:16:55;;;;;;;;;;;;;;;12.83;79.02;99384.28;5464590;32;34854;-72
2023/10/28 06:19:59;;;;;;;;;;;;;;;12.95;77.95;99386.13;5460076;32;34830;-73
2023/10/28 06:23:01;;;;;;;;;;;;;;;12.47;80.13;99398.81;5461334;32;34839;-71
2023/10/28 06:26:07;;;;;;;;;;;;;;;13.33;82.66;99398.66;5458326;32;34947;-72
2023/10/28 06:29:09;;;;;;;;;;;;;;;14.01;76.70;99395.75;5458614;32;34727;-71
2023/10/28 06:32:12;;;;;;;;;;;;;;;15.07;70.11;99391.78;5464240;32;34747;-73
2023/10/28 06:35:16;;;;;;;;;;;;;;;15.77;66.72;99390.13;5459372;32;34579;-73
2023/10/28 06:38:18;;;;;;;;;;;;;;;15.90;64.62;99385.56;5463411;32;36134;-73
2023/10/28 06:41:21;;;;;;;;;;;;;;;16.12;63.63;99390.06;5459292;32;35651;-71
2023/10/28 06:44:23;;;;;;;;;;;;;;;16.33;63.59;99384.91;5459826;32;34979;-73
2023/10/28 06:47:25;;;;;;;;;;;;;;;15.01;68.86;99402.81;5463862;32;35141;-73
2023/10/28 06:50:27;;;;;;;;;;;;;;;14.66;69.17;99404.50;5441108;32;34982;-72
2023/10/28 06:53:30;;;;;;;;;;;;;;;14.69;70.43;99409.59;5436616;32;874223;-74
2023/10/28 06:56:32;;;;;;;;;;;;;;;14.67;70.18;99414.13;5458765;32;34889;-73
2023/10/28 06:59:34;;;;;;;;;;;;;;;14.70;69.51;99425.34;5445688;32;35105;-72
2023/10/28 07:02:36;;;;;;;;;;;;;;;14.25;72.73;99421.44;5438526;32;34612;-73
2023/10/28 07:05:39;;;;;;;;;;;;;;;14.80;70.40;99425.50;5457333;32;35542;-72
2023/10/28 07:08:50;;;;;;;;;;;;;;;14.26;73.30;99431.91;5473883;32;35388;-71
2023/10/28 07:11:53;;;;;;;;;;;;;;;13.62;77.14;99443.38;5443947;32;35271;-73
2023/10/28 07:14:55;;;;;;;;;;;;;;;14.36;74.66;99443.56;5463686;32;34782;-73
2023/10/28 07:17:58;;;;;;;;;;;;;;;14.11;76.20;99458.56;5458970;32;35224;-72
2023/10/28 07:21:01;;;;;;;;;;;;;;;13.81;77.05;99465.78;5462598;32;34800;-72
2023/10/28 07:24:04;;;;;;;;;;;;;;;14.01;75.82;99475.03;5447436;32;34814;-71
2023/10/28 07:27:06;;;;;;;;;;;;;;;15.54;68.70;99472.12;5458822;32;35537;-71
2023/10/28 07:30:10;;;;;;;;;;;;;;;14.85;71.70;99474.50;5466035;32;34995;-72
2023/10/28 07:33:13;;;;;;;;;;;;;;;15.57;68.94;99477.19;5461517;32;35105;-74
2023/10/28 07:36:15;;;;;;;;;;;;;;;14.43;74.53;99488.06;5465303;32;34296;-72
2023/10/28 07:39:17;;;;;;;;;;;;;;;15.02;73.42;99488.31;5460930;32;35509;-73
2023/10/28 07:42:22;;;;;;;;;;;;;;;15.39;70.94;99499.72;5446145;32;35060;-73
2023/10/28 07:45:24;;;;;;;;;;;;;;;15.34;71.41;99494.78;5442633;32;34901;-73
2023/10/28 07:48:28;;;;;;;;;;;;;;;14.49;74.41;99507.03;5460968;32;36000;-72
2023/10/28 07:51:30;;;;;;;;;;;;;;;14.87;75.30;99511.41;5465460;32;34919;-73
2023/10/28 07:54:32;;;;;;;;;;;;;;;14.69;77.25;99503.00;5460671;32;34870;-75
2023/10/28 07:57:34;;;;;;;;;;;;;;;14.77;74.63;99502.44;5466323;32;34553;-72
2023/10/28 08:00:37;;;;;;;;;;;;;;;15.56;73.52;99494.03;5460757;32;34629;-73
2023/10/28 08:03:43;;;;;;;;;;;;;;;15.48;71.45;99499.06;5461253;32;34692;-71
2023/10/28 08:06:46;;;;;;;;;;;;;;;14.93;73.51;99505.69;5462344;32;34901;-73
2023/10/28 08:09:48;;;;;;;;;;;;;;;14.56;76.15;99508.28;5460449;32;35201;-72
2023/10/28 08:12:53;;;;;;;;;;;;;;;15.34;72.59;99509.84;5465593;32;34904;-74
2023/10/28 08:15:55;;;;;;;;;;;;;;;15.95;69.01;99518.56;5445486;32;36651;-74
2023/10/28 08:18:58;;;;;;;;;;;;;;;16.06;69.05;99523.06;5451485;32;34710;-72
2023/10/28 08:22:00;;;;;;;;;;;;;;;16.33;68.30;99520.13;5461363;32;34966;-73
2023/10/28 08:25:04;;;;;;;;;;;;;;;17.10;64.12;99513.19;5462003;32;34703;-72
2023/10/28 08:28:06;;;;;;;;;;;;;;;16.54;66.62;99518.47;5464101;32;34246;-74
2023/10/28 08:31:08;;;;;;;;;;;;;;;15.56;70.85;99525.81;5459789;32;34763;-72
2023/10/28 08:34:11;;;;;;;;;;;;;;;15.18;72.56;99532.09;5448970;32;34417;-74
2023/10/28 08:37:13;;;;;;;;;;;;;;;16.55;68.04;99536.09;5460021;32;34894;-73
2023/10/28 08:40:15;;;;;;;;;;;;;;;16.67;66.34;99539.56;5462188;32;35032;-74
2023/10/28 08:43:17;;;;;;;;;;;;;;;16.24;69.08;99550.84;5461866;32;34397;-74
2023/10/28 08:46:19;;;;;;;;;;;;;;;16.43;68.76;99555.59;5438020;32;34511;-74
2023/10/28 08:49:22;;;;;;;;;;;;;;;16.69;66.36;99557.09;5452136;32;34854;-74
2023/10/28 08:52:24;;;;;;;;;;;;;;;18.08;61.30;99553.03;5446287;32;35391;-73
2023/10/28 08:55:26;;;;;;;;;;;;;;;17.22;63.91;99565.31;5449829;32;34678;-73
2023/10/28 08:58:29;;;;;;;;;;;;;;;17.95;61.92;99555.88;5430563;32;36472;-74
2023/10/28 09:01:31;;;;;;;;;;;;;;;18.05;60.82;99555.97;5464088;32;35441;-72
2023/10/28 09:04:34;;;;;;;;;;;;;;;17.78;62.06;99559.09;5458510;32;34356;-74
2023/10/28 09:07:36;;;;;;;;;;;;;;;17.58;62.90;99555.34;5459853;32;35461;-73
2023/10/28 09:10:40;;;;;;;;;;;;;;;18.19;60.44;99565.44;5465162;32;34593;-73
2023/10/28 09:13:45;;;;;;;;;;;;;;;16.66;65.95;99583.84;5460162;32;34901;-72
2023/10/28 09:16:47;;;;;;;;;;;;;;;16.51;67.14;99587.69;5465330;32;35669;-71
2023/10/28 09:19:52;;;;;;;;;;;;;;;16.99;66.39;99595.50;5460751;32;34603;-72
2023/10/28 09:22:54;;;;;;;;;;;;;;;17.58;63.37;99596.06;5447769;32;34295;-72
2023/10/28 09:25:56;;;;;;;;;;;;;;;17.07;64.91;99603.72;5459598;32;34637;-74
2023/10/28 09:28:59;;;;;;;;;;;;;;;17.96;61.46;99591.28;5457740;32;35049;-72
2023/10/28 09:32:05;;;;;;;;;;;;;;;16.78;66.57;99590.03;5459833;32;35024;-73
2023/10/28 09:35:08;;;;;;;;;;;;;;;18.36;60.75;99583.50;5444683;32;34960;-72
2023/10/28 09:38:11;;;;;;;;;;;;;;;18.08;61.42;99584.94;5464375;32;34910;-74
2023/10/28 09:41:13;;;;;;;;;;;;;;;16.52;67.85;99597.31;5440903;32;34694;-73
2023/10/28 09:44:16;;;;;;;;;;;;;;;16.53;68.96;99591.88;5464050;32;35042;-74
2023/10/28 09:47:20;;;;;;;;;;;;;;;17.39;65.63;99595.00;5445794;32;34552;-73
2023/10/28 09:50:25;;;;;;;;;;;;;;;16.94;65.77;99593.22;5461088;32;34477;-72
2023/10/28 09:53:32;;;;;;;;;;;;;;;17.41;65.86;99585.94;5448966;32;34258;-73
2023/10/28 09:56:37;;;;;;;;;;;;;;;17.00;66.83;99592.75;5444111;32;35057;-72
2023/10/28 09:59:40;;;;;;;;;;;;;;;16.88;67.09;99587.53;5466027;32;35675;-74
2023/10/28 10:02:44;;;;;;;;;;;;;;;18.02;63.80;99578.31;5458423;32;35036;-74
2023/10/28 10:05:47;;;;;;;;;;;;;;;17.54;65.28;99577.84;5445175;32;35584;-72
2023/10/28 10:08:49;;;;;;;;;;;;;;;17.81;63.04;99572.13;5465473;32;35259;-74
2023/10/28 10:11:51;;;;;;;;;;;;;;;17.50;64.89;99571.91;5460997;32;35036;-71
2023/10/28 10:14:55;;;;;;;;;;;;;;;18.77;60.39;99572.03;5450854;32;34979;-71
2023/10/28 10:17:57;;;;;;;;;;;;;;;17.79;64.40;99574.91;5435856;32;35007;-71
2023/10/28 10:21:11;;;;;;;;;;;;;;;17.50;65.06;99568.41;5447414;32;34957;-72
2023/10/28 10:24:13;;;;;;;;;;;;;;;17.35;66.21;99572.31;5461798;32;35165;-73
2023/10/28 10:27:15;;;;;;;;;;;;;;;18.19;63.68;99568.09;5429271;32;35152;-73
2023/10/28 10:30:17;;;;;;;;;;;;;;;18.86;60.73;99557.91;5465583;32;35622;-73
2023/10/28 10:33:26;;;;;;;;;;;;;;;19.06;59.80;99565.97;5460859;32;34868;-74
2023/10/28 10:36:28;;;;;;;;;;;;;;;19.15;59.46;99557.22;5449292;32;34709;-72
2023/10/28 10:39:41;;;;;;;;;;;;;;;18.67;60.68;99560.47;5441645;32;35318;-74
2023/10/28 10:42:43;;;;;;;;;;;;;;;19.12;60.47;99560.97;5460099;32;34382;-71
2023/10/28 10:45:45;;;;;;;;;;;;;;;19.43;59.56;99556.44;5463050;32;35193;-73
2023/10/28 10:48:48;;;;;;;;;;;;;;;19.40;57.85;99554.06;5460160;32;35554;-74
2023/10/28 10:51:50;;;;;;;;;;;;;;;20.16;55.73;99558.81;5463254;32;35561;-73
2023/10/28 10:54:53;;;;;;;;;;;;;;;20.74;52.97;99564.09;5457506;32;35106;-73
2023/10/28 10:57:55;;;;;;;;;;;;;;;19.18;57.11;99568.41;5451764;32;35717;-75
2023/10/28 11:00:58;;;;;;;;;;;;;;;18.82;58.70;99572.47;5460749;32;34461;-74
2023/10/28 11:04:06;;;;;;;;;;;;;;;19.64;56.72;99564.41;5459805;32;34838;-74
2023/10/28 11:07:09;;;;;;;;;;;;;;;19.32;57.72;99559.25;5462864;32;35477;-70
2023/10/28 11:10:12;;;;;;;;;;;;;;;19.81;55.87;99568.19;5461847;32;34798;-72
2023/10/28 11:13:14;;;;;;;;;;;;;;;19.69;56.23;99567.47;5452658;32;34183;-73
2023/10/28 11:16:25;;;;;;;;;;;;;;;19.11;57.09;99569.94;5460679;32;34755;-73
2023/10/28 11:19:27;;;;;;;;;;;;;;;19.74;54.68;99561.72;5451550;32;34324;-74
2023/10/28 11:22:29;;;;;;;;;;;;;;;19.32;54.96;99567.22;5462837;32;34833;-72
2023/10/28 11:25:32;;;;;;;;;;;;;;;19.65;51.17;99558.09;5439497;32;35453;-73
2023/10/28 11:28:38;;;;;;;;;;;;;;;19.12;52.35;99558.31;5449260;32;35480;-74
2023/10/28 11:31:41;;;;;;;;;;;;;;;19.04;52.02;99555.47;5461548;32;34684;-74
2023/10/28 11:34:44;;;;;;;;;;;;;;;20.45;48.74;99553.47;5467226;32;35007;-74
2023/10/28 11:37:46;;;;;;;;;;;;;;;21.49;45.76;99546.22;5461567;32;35106;-72
2023/10/28 11:41:08;;;;;;;;;;;;;;;21.70;44.52;99541.41;5464503;32;34279;-74
2023/10/28 11:44:20;;;;;;;;;;;;;;;20.72;47.22;99552.69;5465695;32;36817;-72
2023/10/28 11:47:32;;;;;;;;;;;;;;;21.52;45.09;99540.56;5447673;32;33370;-71
2023/10/28 11:50:46;;;;;;;;;;;;;;;21.53;44.49;99532.41;5449720;32;33698;-73
2023/10/28 11:53:55;;;;;;;;;;;;;;;20.66;46.37;99539.94;5447426;32;33829;-72
2023/10/28 11:56:57;;;;;;;;;;;;;;;21.18;45.24;99537.63;5463026;32;35258;-74
2023/10/28 11:59:59;;;;;;;;;;;;;;;21.11;45.36;99548.06;5465176;32;34870;-75
2023/10/28 12:03:04;;;;;;;;;;;;;;;19.29;50.07;99556.84;5454998;32;34852;-73
2023/10/28 12:06:06;;;;;;;;;;;;;;;20.66;46.82;99550.59;5463488;32;36661;-74
2023/10/28 12:09:27;;;;;;;;;;;;;;;20.46;46.99;99560.50;5461212;32;34868;-72
2023/10/28 12:12:29;;;;;;;;;;;;;;;20.34;48.00;99554.44;5444832;32;34328;-72
2023/10/28 12:15:32;;;;;;;;;;;;;;;20.58;46.51;99548.66;5461545;32;35288;-73
2023/10/28 12:18:34;;;;;;;;;;;;;;;20.57;46.90;99556.81;5472295;32;34654;-72
2023/10/28 12:21:37;;;;;;;;;;;;;;;20.19;47.79;99558.53;5465561;32;35534;-72
2023/10/28 12:24:39;;;;;;;;;;;;;;;20.02;48.87;99565.41;5443175;32;35427;-74
2023/10/28 12:27:42;;;;;;;;;;;;;;;20.23;48.63;99563.44;5451333;32;35639;-74
2023/10/28 12:30:44;;;;;;;;;;;;;;;20.52;46.87;99568.75;5459677;32;34363;-71
2023/10/28 12:33:46;;;;;;;;;;;;;;;19.52;49.86;99564.63;5464866;32;35343;-73
2023/10/28 12:36:49;;;;;;;;;;;;;;;20.16;48.21;99565.00;5461414;32;34882;-75
2023/10/28 12:39:51;;;;;;;;;;;;;;;19.53;50.20;99567.16;5460703;32;34759;-75
2023/10/28 12:42:53;;;;;;;;;;;;;;;19.85;49.51;99563.44;5451086;32;34563;-71
2023/10/28 12:45:55;;;;;;;;;;;;;;;19.80;50.20;99566.50;5457613;32;34270;-71
2023/10/28 12:48:58;;;;;;;;;;;;;;;20.59;48.26;99570.84;5462978;32;35922;-74
2023/10/28 12:52:01;;;;;;;;;;;;;;;20.83;47.05;99563.22;5460011;32;34993;-74
2023/10/28 12:55:03;;;;;;;;;;;;;;;19.56;50.95;99566.00;5458151;32;35031;-73
2023/10/28 12:58:07;;;;;;;;;;;;;;;19.92;50.05;99584.06;5463066;32;35019;-72
2023/10/28 13:01:09;;;;;;;;;;;;;;;19.87;49.26;99574.81;5458834;32;34942;-73
2023/10/28 13:04:12;;;;;;;;;;;;;;;19.52;49.79;99576.13;5460705;32;34998;-72
2023/10/28 13:07:14;;;;;;;;;;;;;;;19.90;48.90;99580.72;5459766;32;35382;-74
2023/10/28 13:10:16;;;;;;;;;;;;;;;19.36;49.20;99581.94;5465357;32;34885;-72
2023/10/28 13:13:18;;;;;;;;;;;;;;;19.35;48.79;99584.75;5461458;32;34888;-72
2023/10/28 13:16:20;;;;;;;;;;;;;;;19.58;48.69;99586.28;5462433;32;34690;-72
2023/10/28 13:19:22;;;;;;;;;;;;;;;19.17;46.82;99584.53;5463036;32;35338;-74
2023/10/28 13:22:24;;;;;;;;;;;;;;;19.20;45.56;99589.63;5461276;32;34845;-74
2023/10/28 13:25:29;;;;;;;;;;;;;;;18.80;45.38;99592.22;5464795;32;34323;-73
2023/10/28 13:28:32;;;;;;;;;;;;;;;19.14;44.82;99595.47;5445600;32;35190;-74
2023/10/28 13:31:38;;;;;;;;;;;;;;;19.69;43.57;99590.63;5464077;32;35134;-73
2023/10/28 13:34:42;;;;;;;;;;;;;;;19.04;43.72;99591.91;5434261;32;35847;-75
2023/10/28 13:37:44;;;;;;;;;;;;;;;19.33;42.66;99590.22;5461900;32;35410;-74
2023/10/28 13:40:46;;;;;;;;;;;;;;;19.25;43.47;99584.72;5465288;32;34526;-72
2023/10/28 13:43:48;;;;;;;;;;;;;;;19.09;44.02;99579.91;5461615;32;34602;-75
2023/10/28 13:46:56;;;;;;;;;;;;;;;18.50;45.75;99585.00;5465410;32;34640;-74
2023/10/28 13:49:59;;;;;;;;;;;;;;;18.56;46.32;99589.81;5459504;32;35437;-73
2023/10/28 13:53:06;;;;;;;;;;;;;;;19.72;43.49;99583.19;5444444;32;35123;-72
2023/10/28 13:56:08;;;;;;;;;;;;;;;19.06;43.91;99584.63;5460642;32;35287;-73
2023/10/28 13:59:10;;;;;;;;;;;;;;;19.80;42.14;99582.50;5460680;32;34654;-74
2023/10/28 14:02:12;;;;;;;;;;;;;;;19.91;41.64;99595.72;5462852;32;35179;-72
2023/10/28 14:05:15;;;;;;;;;;;;;;;19.00;43.78;99599.34;5457683;32;34484;-73
2023/10/28 14:08:17;;;;;;;;;;;;;;;19.97;41.79;99605.84;5450782;32;34487;-72
2023/10/28 14:11:22;;;;;;;;;;;;;;;19.80;41.63;99611.84;5459866;32;35139;-73
2023/10/28 14:14:24;;;;;;;;;;;;;;;18.78;43.35;99618.13;5464458;32;34279;-73
2023/10/28 14:17:27;;;;;;;;;;;;;;;18.43;42.37;99616.59;5460360;32;34808;-71
2023/10/28 14:20:29;;;;;;;;;;;;;;;18.53;41.51;99606.00;5459386;32;34189;-73
2023/10/28 14:23:31;;;;;;;;;;;;;;;18.18;41.46;99615.13;5465178;32;34811;-72
2023/10/28 14:26:33;;;;;;;;;;;;;;;18.76;39.96;99620.09;5456903;32;34710;-73
2023/10/28 14:29:36;;;;;;;;;;;;;;;18.63;40.02;99618.44;5461019;32;35532;-73
2023/10/28 14:32:38;;;;;;;;;;;;;;;17.83;40.95;99621.50;5452277;32;34379;-72
2023/10/28 14:35:40;;;;;;;;;;;;;;;18.64;39.85;99613.94;5460860;32;34403;-72
2023/10/28 14:38:42;;;;;;;;;;;;;;;19.05;39.88;99631.72;5460665;32;35703;-72
2023/10/28 14:41:45;;;;;;;;;;;;;;;18.97;39.88;99634.22;5459686;32;35201;-74
2023/10/28 14:44:49;;;;;;;;;;;;;;;18.69;40.26;99641.06;5450025;32;35367;-75
2023/10/28 14:47:51;;;;;;;;;;;;;;;18.75;40.54;99637.88;5459436;32;35440;-74
2023/10/28 14:50:56;;;;;;;;;;;;;;;18.96;40.06;99650.31;5447072;32;35154;-73
2023/10/28 14:53:58;;;;;;;;;;;;;;;18.00;41.45;99644.09;5457151;32;34932;-75
2023/10/28 14:57:05;;;;;;;;;;;;;;;17.92;41.83;99630.56;5461421;32;34255;-74
2023/10/28 15:00:10;;;;;;;;;;;;;;;18.53;41.10;99632.63;5461590;32;34781;-72
2023/10/28 15:03:12;;;;;;;;;;;;;;;19.11;40.06;99627.69;5456991;32;36012;-71
2023/10/28 15:06:18;;;;;;;;;;;;;;;19.41;38.53;99638.34;5441081;32;35033;-73
2023/10/28 15:09:20;;;;;;;;;;;;;;;19.09;40.97;99651.81;5459040;32;34238;-72
2023/10/28 15:12:24;;;;;;;;;;;;;;;19.37;39.63;99646.75;5463811;32;34423;-75
2023/10/28 15:15:26;;;;;;;;;;;;;;;18.26;40.81;99654.41;5459209;32;34361;-72
2023/10/28 15:18:28;;;;;;;;;;;;;;;18.00;41.71;99649.41;5459740;32;35063;-74
2023/10/28 15:21:30;;;;;;;;;;;;;;;18.29;41.38;99646.16;5474623;32;34997;-71
2023/10/28 15:24:33;;;;;;;;;;;;;;;18.53;41.34;99640.59;5459681;32;35208;-74
2023/10/28 15:27:35;;;;;;;;;;;;;;;18.25;43.05;99648.22;5462806;32;35092;-72
2023/10/28 15:30:37;;;;;;;;;;;;;;;18.86;42.01;99648.44;5459348;32;34407;-72
2023/10/28 15:33:40;;;;;;;;;;;;;;;18.88;41.94;99646.50;5447178;32;34294;-72
2023/10/28 15:36:42;;;;;;;;;;;;;;;18.52;42.03;99638.94;5441833;32;35524;-72
2023/10/28 15:39:44;;;;;;;;;;;;;;;18.16;42.94;99637.50;5460877;32;35654;-73
2023/10/28 15:42:47;;;;;;;;;;;;;;;18.28;42.81;99647.97;5467006;32;34400;-75
2023/10/28 15:45:49;;;;;;;;;;;;;;;18.28;43.04;99652.44;5459251;32;34831;-72
2023/10/28 15:48:51;;;;;;;;;;;;;;;16.99;47.66;99653.88;5466568;32;34701;-72
2023/10/28 15:51:53;;;;;;;;;;;;;;;17.14;46.96;99647.41;5447637;32;35814;-74
2023/10/28 15:54:56;;;;;;;;;;;;;;;17.74;46.07;99658.63;5451725;32;34982;-71
2023/10/28 15:58:06;;;;;;;;;;;;;;;17.01;48.17;99659.94;5459234;32;35036;-74
2023/10/28 16:01:11;;;;;;;;;;;;;;;17.30;47.30;99653.19;5459959;32;34748;-71